createdAt,value
2023-05-06T00:00:55.911Z,6.10
2023-05-06T00:03:23.349Z,6.30
2023-05-06T00:05:53.081Z,6.60
2023-05-06T00:08:20.727Z,6.10
2023-05-06T00:10:48.176Z,6.57
2023-05-06T00:13:16.127Z,6.82
2023-05-06T00:15:43.609Z,6.78
2023-05-06T00:18:10.992Z,6.53
2023-05-06T00:20:38.387Z,6.65
2023-05-06T00:23:07.886Z,6.30
2023-05-06T00:25:35.259Z,6.63
2023-05-06T00:28:02.612Z,6.72
2023-05-06T00:30:30.160Z,6.22
2023-05-06T00:32:57.541Z,6.55
2023-05-06T00:35:25.086Z,6.35
2023-05-06T00:38:08.766Z,6.88
2023-05-06T00:40:36.619Z,6.28
2023-05-06T00:43:04.008Z,6.60
2023-05-06T00:45:31.908Z,6.40
2023-05-06T00:47:59.450Z,6.53
2023-05-06T00:50:29.712Z,6.88
2023-05-06T00:52:59.346Z,7.10
2023-05-06T00:55:27.868Z,6.65
2023-05-06T00:57:55.321Z,7.57
2023-05-06T01:00:22.996Z,6.78
2023-05-06T01:02:50.533Z,6.78
2023-05-06T01:05:21.068Z,7.20
2023-05-06T01:08:09.553Z,6.70
2023-05-06T01:10:43.017Z,6.85
2023-05-06T01:13:31.816Z,7.40
2023-05-06T01:16:01.572Z,6.40
2023-05-06T01:18:32.372Z,6.88
2023-05-06T01:21:01.889Z,6.47
2023-05-06T01:23:29.223Z,5.40
2023-05-06T01:25:56.939Z,4.97
2023-05-06T01:28:24.290Z,5.10
2023-05-06T01:31:11.617Z,5.15
2023-05-06T01:33:49.925Z,5.03
2023-05-06T01:36:32.818Z,5.15
2023-05-06T01:39:02.268Z,5.10
2023-05-06T01:41:34.023Z,4.85
2023-05-06T01:44:01.915Z,5.32
2023-05-06T01:46:30.641Z,5.13
2023-05-06T01:49:01.214Z,4.75
2023-05-06T01:51:28.672Z,5.70
2023-05-06T01:53:56.042Z,5.43
2023-05-06T01:56:23.657Z,5.10
2023-05-06T01:58:53.761Z,5.38
2023-05-06T02:01:21.172Z,5.40
2023-05-06T02:03:48.677Z,6.13
2023-05-06T02:06:17.551Z,6.05
2023-05-06T02:08:45.225Z,5.85
2023-05-06T02:11:17.201Z,6.10
2023-05-06T02:13:45.251Z,5.82
2023-05-06T02:16:13.284Z,6.15
2023-05-06T02:18:41.436Z,6.15
2023-05-06T02:21:10.106Z,6.07
2023-05-06T02:23:37.432Z,6.22
2023-05-06T02:26:07.700Z,6.18
2023-05-06T02:28:35.052Z,5.70
2023-05-06T02:31:02.523Z,6.05
2023-05-06T02:33:30.054Z,6.15
2023-05-06T02:35:57.375Z,5.93
2023-05-06T02:38:25.017Z,6.22
2023-05-06T02:40:52.396Z,6.43
2023-05-06T02:43:20.037Z,6.47
2023-05-06T02:45:47.915Z,6.32
2023-05-06T02:48:15.241Z,5.47
2023-05-06T02:50:42.616Z,6.07
2023-05-06T02:53:10.510Z,5.82
2023-05-06T02:55:37.925Z,5.88
2023-05-06T02:58:05.327Z,6.30
2023-05-06T03:00:33.863Z,5.60
2023-05-06T03:03:01.368Z,6.38
2023-05-06T03:05:28.788Z,8.45
2023-05-06T03:07:56.428Z,6.65
2023-05-06T03:10:24.597Z,8.88
2023-05-06T03:12:52.086Z,9.07
2023-05-06T03:15:19.641Z,9.43
2023-05-06T03:17:49.170Z,9.32
2023-05-06T03:20:16.809Z,8.45
2023-05-06T03:22:50.725Z,10.10
2023-05-06T03:25:19.621Z,10.30
2023-05-06T03:27:47.076Z,8.82
2023-05-06T03:30:19.327Z,10.13
2023-05-06T03:32:48.942Z,9.15
2023-05-06T03:35:23.124Z,10.25
2023-05-06T03:37:54.672Z,9.25
2023-05-06T03:40:23.855Z,10.55
2023-05-06T03:42:52.337Z,10.45
2023-05-06T03:45:20.477Z,9.82
2023-05-06T03:47:48.394Z,10.35
2023-05-06T03:50:17.315Z,10.85
2023-05-06T03:52:44.818Z,10.77
2023-05-06T03:55:12.532Z,10.50
2023-05-06T03:57:40.085Z,9.98
2023-05-06T04:00:09.147Z,10.20
2023-05-06T04:02:43.638Z,11.05
2023-05-06T04:05:18.466Z,10.27
2023-05-06T04:07:46.635Z,10.75
2023-05-06T04:10:15.013Z,10.10
2023-05-06T04:12:47.288Z,10.77
2023-05-06T04:15:19.702Z,11.10
2023-05-06T04:17:47.155Z,10.80
2023-05-06T04:20:16.160Z,10.85
2023-05-06T04:22:43.520Z,10.82
2023-05-06T04:25:12.168Z,12.15
2023-05-06T04:27:40.129Z,11.18
2023-05-06T04:30:09.551Z,10.65
2023-05-06T04:32:38.710Z,10.82
2023-05-06T04:35:07.670Z,10.95
2023-05-06T04:37:35.213Z,11.05
2023-05-06T04:40:09.310Z,11.52
2023-05-06T04:42:39.569Z,12.27
2023-05-06T04:45:12.375Z,11.82
2023-05-06T04:47:43.076Z,12.25
2023-05-06T04:50:11.161Z,12.20
2023-05-06T04:52:38.563Z,13.20
2023-05-06T04:55:07.019Z,12.35
2023-05-06T04:57:37.034Z,12.40
2023-05-06T05:00:06.554Z,12.27
2023-05-06T05:02:33.982Z,12.77
2023-05-06T05:05:03.459Z,12.90
2023-05-06T05:07:31.026Z,12.05
2023-05-06T05:09:58.429Z,12.07
2023-05-06T05:12:26.158Z,11.68
2023-05-06T05:14:56.665Z,12.57
2023-05-06T05:17:23.995Z,12.23
2023-05-06T05:19:52.869Z,12.93
2023-05-06T05:22:20.848Z,11.70
2023-05-06T05:24:48.253Z,12.93
2023-05-06T05:27:17.138Z,11.75
2023-05-06T05:29:44.633Z,12.25
2023-05-06T05:32:12.015Z,11.75
2023-05-06T05:34:39.703Z,12.65
2023-05-06T05:37:07.720Z,11.55
2023-05-06T05:39:35.291Z,12.48
2023-05-06T05:42:03.690Z,12.73
2023-05-06T05:44:33.423Z,12.23
2023-05-06T05:47:03.902Z,12.05
2023-05-06T05:49:32.021Z,12.55
2023-05-06T05:51:59.462Z,12.02
2023-05-06T05:54:27.742Z,12.45
2023-05-06T05:56:55.150Z,11.90
2023-05-06T05:59:22.906Z,12.23
2023-05-06T06:01:52.889Z,11.60
2023-05-06T06:04:21.098Z,11.68
2023-05-06T06:06:48.537Z,12.05
2023-05-06T06:09:17.284Z,11.13
2023-05-06T06:11:45.523Z,12.30
2023-05-06T06:14:13.386Z,10.85
2023-05-06T06:16:40.909Z,12.27
2023-05-06T06:19:08.671Z,12.27
2023-05-06T06:21:36.839Z,12.13
2023-05-06T06:24:05.023Z,11.68
2023-05-06T06:26:32.506Z,11.90
2023-05-06T06:29:00.144Z,12.15
2023-05-06T06:31:29.353Z,12.18
2023-05-06T06:33:56.862Z,11.57
2023-05-06T06:36:24.297Z,12.05
2023-05-06T06:38:51.607Z,12.23
2023-05-06T06:41:19.010Z,12.07
2023-05-06T06:43:46.343Z,11.63
2023-05-06T06:46:25.335Z,11.30
2023-05-06T06:48:52.744Z,12.02
2023-05-06T06:51:20.147Z,12.48
2023-05-06T06:53:49.069Z,11.65
2023-05-06T06:56:16.553Z,11.50
2023-05-06T06:58:44.247Z,12.38
2023-05-06T07:01:12.719Z,11.95
2023-05-06T07:03:40.212Z,11.40
2023-05-06T07:06:08.586Z,11.43
2023-05-06T07:08:36.052Z,13.30
2023-05-06T07:11:03.594Z,11.43
2023-05-06T07:13:30.939Z,11.07
2023-05-06T07:15:58.801Z,10.57
2023-05-06T07:18:26.174Z,10.35
2023-05-06T07:20:53.759Z,10.30
2023-05-06T07:23:21.431Z,11.32
2023-05-06T07:25:49.120Z,11.40
2023-05-06T07:28:16.612Z,11.10
2023-05-06T07:30:44.071Z,10.93
2023-05-06T07:33:11.445Z,11.40
2023-05-06T07:35:41.820Z,10.70
2023-05-06T07:38:09.189Z,10.77
2023-05-06T07:40:36.607Z,11.27
2023-05-06T07:43:04.125Z,11.05
2023-05-06T07:45:31.683Z,11.95
2023-05-06T07:47:59.164Z,11.95
2023-05-06T07:50:26.694Z,11.55
2023-05-06T07:52:54.002Z,11.90
2023-05-06T07:55:21.364Z,11.60
2023-05-06T07:57:49.736Z,10.15
2023-05-06T08:00:17.334Z,11.15
2023-05-06T08:02:45.016Z,11.20
2023-05-06T08:05:15.470Z,11.93
2023-05-06T08:07:43.084Z,11.50
2023-05-06T08:10:11.083Z,9.80
2023-05-06T08:12:38.696Z,11.55
2023-05-06T08:15:07.037Z,11.45
2023-05-06T08:17:34.332Z,11.68
2023-05-06T08:20:01.827Z,11.50
2023-05-06T08:22:29.311Z,11.75
2023-05-06T08:25:05.761Z,10.68
2023-05-06T08:27:33.130Z,11.30
2023-05-06T08:30:00.658Z,11.10
2023-05-06T08:32:30.732Z,11.27
2023-05-06T08:34:59.813Z,10.38
2023-05-06T08:37:27.224Z,10.98
2023-05-06T08:39:58.161Z,11.55
2023-05-06T08:42:28.271Z,10.65
2023-05-06T08:44:56.362Z,10.82
2023-05-06T08:47:24.066Z,9.60
2023-05-06T08:49:51.551Z,11.57
2023-05-06T08:52:21.429Z,10.45
2023-05-06T08:54:51.956Z,11.10
2023-05-06T08:57:19.433Z,10.32
2023-05-06T08:59:47.611Z,9.68
2023-05-06T09:02:15.686Z,10.48
2023-05-06T09:04:43.148Z,9.70
2023-05-06T09:07:10.659Z,9.90
2023-05-06T09:09:38.044Z,9.70
2023-05-06T09:12:10.266Z,10.23
2023-05-06T09:14:37.617Z,9.27
2023-05-06T09:17:05.467Z,10.15
2023-05-06T09:19:38.097Z,9.80
2023-05-06T09:22:05.753Z,10.13
2023-05-06T09:24:33.107Z,9.40
2023-05-06T09:27:01.580Z,9.68
2023-05-06T09:29:28.907Z,9.43
2023-05-06T09:31:56.565Z,9.70
2023-05-06T09:34:27.524Z,8.48
2023-05-06T09:36:57.192Z,9.45
2023-05-06T09:39:30.872Z,9.77
2023-05-06T09:41:58.373Z,9.05
2023-05-06T09:44:26.895Z,9.40
2023-05-06T09:46:54.522Z,9.05
2023-05-06T09:49:22.129Z,8.73
2023-05-06T09:51:51.666Z,7.60
2023-05-06T09:54:19.506Z,9.68
2023-05-06T09:56:48.087Z,9.05
2023-05-06T09:59:18.437Z,9.98
2023-05-06T10:01:47.016Z,10.80
2023-05-06T10:04:17.402Z,9.88
2023-05-06T10:06:49.041Z,8.57
2023-05-06T10:09:17.573Z,9.02
2023-05-06T10:11:47.150Z,7.70
2023-05-06T10:14:14.651Z,8.00
2023-05-06T10:16:43.064Z,8.93
2023-05-06T10:19:11.911Z,8.25
2023-05-06T10:21:43.605Z,8.77
2023-05-06T10:24:19.163Z,9.35
2023-05-06T10:26:46.875Z,8.98
2023-05-06T10:29:17.382Z,8.05
2023-05-06T10:31:52.589Z,8.20
2023-05-06T10:34:21.358Z,9.30
2023-05-06T10:36:52.026Z,8.70
2023-05-06T10:39:20.954Z,9.10
2023-05-06T10:41:49.079Z,8.57
2023-05-06T10:44:16.464Z,9.32
2023-05-06T10:46:58.646Z,9.63
2023-05-06T10:49:27.625Z,8.25
2023-05-06T10:52:16.965Z,8.10
2023-05-06T10:54:51.630Z,9.30
2023-05-06T10:57:22.533Z,9.95
2023-05-06T10:59:50.003Z,9.87
2023-05-06T11:02:20.045Z,8.25
2023-05-06T11:04:53.040Z,9.43
2023-05-06T11:07:24.042Z,8.98
2023-05-06T11:10:02.190Z,9.23
2023-05-06T11:12:52.724Z,8.63
2023-05-06T11:17:55.683Z,9.88
2023-05-06T11:20:25.610Z,10.07
2023-05-06T11:22:54.005Z,8.52
2023-05-06T11:25:51.345Z,10.20
2023-05-06T11:28:18.820Z,10.75
2023-05-06T11:30:54.795Z,8.18
2023-05-06T11:33:25.066Z,9.48
2023-05-06T11:35:53.163Z,9.07
2023-05-06T11:38:20.568Z,8.60
2023-05-06T11:40:49.111Z,8.13
2023-05-06T11:43:17.000Z,9.55
2023-05-06T11:45:46.737Z,7.30
2023-05-06T11:48:18.592Z,8.35
2023-05-06T11:53:19.067Z,8.48
2023-05-06T11:55:47.684Z,8.57
2023-05-06T11:58:25.516Z,7.32
2023-05-06T12:00:58.049Z,8.85
2023-05-06T12:03:27.660Z,8.25
2023-05-06T12:05:55.821Z,9.05
2023-05-06T12:08:28.257Z,10.30
2023-05-06T12:11:00.538Z,9.32
2023-05-06T12:13:28.987Z,8.82
2023-05-06T12:15:59.497Z,9.27
2023-05-06T12:18:27.917Z,8.52
2023-05-06T12:21:02.594Z,7.60
2023-05-06T12:23:30.093Z,7.95
2023-05-06T12:26:04.064Z,9.80
2023-05-06T12:28:33.229Z,7.57
2023-05-06T12:31:20.594Z,9.38
2023-05-06T12:33:51.495Z,8.40
2023-05-06T12:36:19.378Z,8.90
2023-05-06T12:38:55.022Z,8.55
2023-05-06T12:41:25.980Z,7.90
2023-05-06T12:43:53.409Z,7.60
2023-05-06T12:46:21.223Z,7.38
2023-05-06T12:49:01.929Z,7.88
2023-05-06T12:51:31.014Z,8.65
2023-05-06T12:53:58.549Z,9.68
2023-05-06T12:56:26.088Z,9.32
2023-05-06T12:58:58.362Z,9.52
2023-05-06T13:01:25.940Z,9.00
2023-05-06T13:03:57.111Z,8.05
2023-05-06T13:06:24.509Z,9.00
2023-05-06T13:08:51.928Z,10.38
2023-05-06T13:11:22.295Z,8.70
2023-05-06T13:13:49.666Z,8.40
2023-05-06T13:16:17.358Z,8.27
2023-05-06T13:18:44.734Z,8.80
2023-05-06T13:21:14.072Z,8.98
2023-05-06T13:23:46.926Z,8.95
2023-05-06T13:26:15.024Z,8.40
2023-05-06T13:28:42.392Z,9.48
2023-05-06T13:31:12.678Z,8.93
2023-05-06T13:33:40.222Z,9.63
2023-05-06T13:36:07.777Z,8.02
2023-05-06T13:38:35.115Z,8.00
2023-05-06T13:41:21.446Z,7.72
2023-05-06T13:43:48.760Z,7.07
2023-05-06T13:46:16.250Z,7.40
2023-05-06T13:48:44.749Z,8.55
2023-05-06T13:51:12.206Z,8.02
2023-05-06T13:53:39.637Z,7.32
2023-05-06T13:56:07.680Z,8.02
2023-05-06T13:58:35.384Z,7.55
2023-05-06T14:01:03.640Z,8.05
2023-05-06T14:03:30.989Z,8.63
2023-05-06T14:05:58.512Z,8.55
2023-05-06T14:08:27.118Z,7.10
2023-05-06T14:10:54.641Z,8.50
2023-05-06T14:13:22.047Z,8.40
2023-05-06T14:15:49.540Z,6.93
2023-05-06T14:18:17.112Z,8.00
2023-05-06T14:20:47.297Z,9.35
2023-05-06T14:23:14.690Z,8.35
2023-05-06T14:25:43.451Z,9.75
2023-05-06T14:28:11.168Z,9.68
2023-05-06T14:30:39.315Z,9.90
2023-05-06T14:33:06.836Z,8.57
2023-05-06T14:35:35.308Z,8.40
2023-05-06T14:38:03.273Z,9.02
2023-05-06T14:40:30.654Z,8.23
2023-05-06T14:42:57.987Z,6.97
2023-05-06T14:45:25.476Z,8.00
2023-05-06T14:47:52.982Z,8.88
2023-05-06T14:50:20.547Z,8.55
2023-05-06T14:52:48.279Z,10.00
2023-05-06T14:55:16.045Z,9.30
2023-05-06T14:57:43.316Z,7.97
2023-05-06T15:00:12.771Z,8.45
2023-05-06T15:02:40.951Z,7.78
2023-05-06T15:05:10.308Z,9.80
2023-05-06T15:07:37.946Z,10.18
2023-05-06T15:10:05.732Z,9.40
2023-05-06T15:12:34.247Z,10.75
2023-05-06T15:15:01.611Z,9.98
2023-05-06T15:17:29.498Z,9.32
2023-05-06T15:19:56.952Z,10.10
2023-05-06T15:22:24.321Z,8.75
2023-05-06T15:24:51.800Z,9.25
2023-05-06T15:27:20.139Z,9.20
2023-05-06T15:29:47.518Z,8.45
2023-05-06T15:32:15.104Z,8.18
2023-05-06T15:34:42.929Z,7.95
2023-05-06T15:37:10.626Z,8.40
2023-05-06T15:39:38.216Z,8.23
2023-05-06T15:42:07.325Z,6.72
2023-05-06T15:44:34.813Z,7.55
2023-05-06T15:47:02.184Z,9.40
2023-05-06T15:52:01.835Z,9.20
2023-05-06T15:54:29.207Z,9.25
2023-05-06T15:56:58.353Z,10.63
2023-05-06T15:59:26.991Z,10.52
2023-05-06T16:04:25.046Z,9.38
2023-05-06T16:06:52.734Z,10.23
2023-05-06T16:09:20.088Z,10.68
2023-05-06T16:11:50.379Z,11.35
2023-05-06T16:14:18.895Z,10.43
2023-05-06T16:16:46.932Z,10.65
2023-05-06T16:19:14.374Z,10.77
2023-05-06T16:21:41.795Z,11.00
2023-05-06T16:24:09.328Z,10.35
2023-05-06T16:26:36.719Z,11.40
2023-05-06T16:29:04.053Z,11.30
2023-05-06T16:31:33.263Z,12.15
2023-05-06T16:34:00.951Z,12.45
2023-05-06T16:36:28.719Z,10.77
2023-05-06T16:38:56.000Z,11.35
2023-05-06T16:41:23.420Z,12.20
2023-05-06T16:43:50.754Z,10.50
2023-05-06T16:46:18.430Z,11.88
2023-05-06T16:48:46.226Z,11.68
2023-05-06T16:51:15.763Z,11.70
2023-05-06T16:53:45.220Z,11.45
2023-05-06T16:56:13.614Z,10.43
2023-05-06T16:58:42.517Z,10.82
2023-05-06T17:01:12.890Z,10.50
2023-05-06T17:03:40.608Z,9.90
2023-05-06T17:06:08.372Z,10.48
2023-05-06T17:08:37.214Z,10.60
2023-05-06T17:11:07.556Z,10.45
2023-05-06T17:13:34.934Z,9.82
2023-05-06T17:16:03.018Z,10.25
2023-05-06T17:18:30.336Z,10.65
2023-05-06T17:20:57.855Z,10.43
2023-05-06T17:23:25.345Z,10.52
2023-05-06T17:25:52.880Z,11.20
2023-05-06T17:28:20.570Z,11.48
2023-05-06T17:30:48.036Z,9.82
2023-05-06T17:33:16.070Z,10.45
2023-05-06T17:35:43.531Z,10.30
2023-05-06T17:38:12.282Z,10.50
2023-05-06T17:40:42.201Z,11.00
2023-05-06T17:43:09.694Z,9.98
2023-05-06T17:45:37.159Z,11.00
2023-05-06T17:48:04.796Z,10.05
2023-05-06T17:50:32.264Z,10.07
2023-05-06T17:52:59.599Z,10.43
2023-05-06T17:55:27.324Z,8.95
2023-05-06T17:57:54.612Z,10.50
2023-05-06T18:00:22.254Z,9.90
2023-05-06T18:02:49.733Z,9.60
2023-05-06T18:05:17.491Z,7.97
2023-05-06T18:07:47.995Z,9.30
2023-05-06T18:10:15.498Z,9.98
2023-05-06T18:12:45.943Z,8.50
2023-05-06T18:15:14.311Z,9.30
2023-05-06T18:17:41.688Z,9.50
2023-05-06T18:20:10.313Z,9.35
2023-05-06T18:22:39.040Z,8.90
2023-05-06T18:25:07.182Z,8.70
2023-05-06T18:27:34.829Z,8.93
2023-05-06T18:30:03.482Z,8.27
2023-05-06T18:32:32.147Z,8.75
2023-05-06T18:34:59.986Z,8.80
2023-05-06T18:37:30.502Z,9.65
2023-05-06T18:39:57.923Z,10.52
2023-05-06T18:42:27.418Z,10.00
2023-05-06T18:44:54.895Z,11.10
2023-05-06T18:47:22.271Z,10.38
2023-05-06T18:49:49.713Z,11.02
2023-05-06T18:52:17.854Z,11.65
2023-05-06T18:54:46.245Z,11.73
2023-05-06T18:57:13.951Z,10.68
2023-05-06T18:59:41.694Z,11.63
2023-05-06T19:02:09.161Z,11.50
2023-05-06T19:04:36.709Z,10.93
2023-05-06T19:07:04.312Z,11.40
2023-05-06T19:09:36.733Z,10.02
2023-05-06T19:12:04.690Z,11.63
2023-05-06T19:14:32.566Z,11.93
2023-05-06T19:17:00.076Z,13.32
2023-05-06T19:19:27.575Z,13.18
2023-05-06T19:21:54.904Z,13.27
2023-05-06T19:24:22.322Z,13.70
2023-05-06T19:26:49.635Z,13.07
2023-05-06T19:29:17.231Z,13.13
2023-05-06T19:31:45.171Z,13.52
2023-05-06T19:34:12.668Z,12.32
2023-05-06T19:36:40.020Z,12.15
2023-05-06T19:39:07.402Z,12.40
2023-05-06T19:41:34.767Z,11.40
2023-05-06T19:44:02.167Z,10.45
2023-05-06T19:46:29.608Z,10.75
2023-05-06T19:49:00.227Z,10.98
2023-05-06T19:51:28.348Z,10.82
2023-05-06T19:53:55.794Z,10.43
2023-05-06T19:56:23.129Z,10.50
2023-05-06T19:58:53.403Z,10.75
2023-05-06T20:01:26.741Z,10.85
2023-05-06T20:03:55.230Z,10.63
2023-05-06T20:06:23.842Z,9.70
2023-05-06T20:08:51.296Z,11.63
2023-05-06T20:11:18.733Z,12.07
2023-05-06T20:13:46.248Z,10.88
2023-05-06T20:16:17.157Z,11.13
2023-05-06T20:18:45.274Z,12.02
2023-05-06T20:21:15.630Z,11.80
2023-05-06T20:23:43.170Z,13.07
2023-05-06T20:26:10.528Z,12.93
2023-05-06T20:28:39.223Z,12.95
2023-05-06T20:31:06.818Z,12.68
2023-05-06T20:33:34.421Z,11.80
2023-05-06T20:36:05.892Z,12.45
2023-05-06T20:38:33.654Z,12.73
2023-05-06T20:41:02.857Z,12.85
2023-05-06T20:43:30.627Z,12.57
2023-05-06T20:45:58.112Z,11.95
2023-05-06T20:48:28.013Z,12.25
2023-05-06T20:50:57.105Z,11.90
2023-05-06T20:53:24.614Z,11.20
2023-05-06T20:55:51.972Z,11.60
2023-05-06T20:58:19.481Z,12.27
2023-05-06T21:00:46.920Z,11.23
2023-05-06T21:03:14.566Z,11.48
2023-05-06T21:05:43.798Z,11.02
2023-05-06T21:08:12.437Z,11.18
2023-05-06T21:10:39.729Z,10.95
2023-05-06T21:13:08.000Z,11.35
2023-05-06T21:15:37.634Z,10.45
2023-05-06T21:18:05.064Z,11.15
2023-05-06T21:20:32.492Z,10.18
2023-05-06T21:22:59.800Z,10.60
2023-05-06T21:25:27.172Z,10.02
2023-05-06T21:27:54.525Z,10.30
2023-05-06T21:30:22.100Z,10.95
2023-05-06T21:32:49.965Z,9.75
2023-05-06T21:35:17.743Z,9.95
2023-05-06T21:37:45.079Z,9.07
2023-05-06T21:40:12.728Z,9.07
2023-05-06T21:42:40.061Z,9.40
2023-05-06T21:45:07.833Z,9.90
2023-05-06T21:47:35.307Z,9.73
2023-05-06T21:50:03.370Z,9.18
2023-05-06T21:52:31.258Z,9.70
2023-05-06T21:54:58.881Z,9.30
2023-05-06T21:57:26.552Z,9.02
2023-05-06T21:59:54.007Z,8.68
2023-05-06T22:04:48.728Z,8.32
2023-05-06T22:07:16.563Z,7.57
2023-05-06T22:09:44.414Z,8.05
2023-05-06T22:12:12.691Z,8.50
2023-05-06T22:14:41.725Z,8.68
2023-05-06T22:17:10.487Z,9.13
2023-05-06T22:19:38.519Z,9.75
2023-05-06T22:22:09.611Z,9.60
2023-05-06T22:24:37.056Z,9.88
2023-05-06T22:27:04.362Z,9.65
2023-05-06T22:29:34.972Z,8.98
2023-05-06T22:32:02.393Z,9.95
2023-05-06T22:34:30.048Z,9.60
2023-05-06T22:36:58.325Z,9.68
2023-05-06T22:39:27.761Z,9.88
2023-05-06T22:41:55.080Z,9.27
2023-05-06T22:44:23.085Z,10.60
2023-05-06T22:46:50.505Z,11.02
2023-05-06T22:49:19.443Z,11.07
2023-05-06T22:51:46.895Z,11.35
2023-05-06T22:54:14.252Z,10.50
2023-05-06T22:56:41.570Z,11.05
2023-05-06T22:59:08.979Z,10.30
2023-05-06T23:01:36.358Z,10.52
2023-05-06T23:04:03.999Z,10.15
2023-05-06T23:06:31.747Z,11.70
2023-05-06T23:09:01.959Z,10.93
2023-05-06T23:11:29.277Z,10.70
2023-05-06T23:13:56.722Z,11.30
2023-05-06T23:16:24.008Z,11.27
2023-05-06T23:18:51.391Z,10.77
2023-05-06T23:21:18.735Z,10.98
2023-05-06T23:23:46.125Z,10.93
2023-05-06T23:26:13.454Z,11.52
2023-05-06T23:28:41.184Z,11.65
2023-05-06T23:31:08.552Z,12.13
2023-05-06T23:33:35.923Z,12.70
2023-05-06T23:36:03.489Z,12.07
2023-05-06T23:38:31.017Z,12.20
2023-05-06T23:40:58.447Z,12.50
2023-05-06T23:43:25.981Z,12.10
2023-05-06T23:45:53.473Z,12.55
2023-05-06T23:48:21.108Z,11.68
2023-05-06T23:50:48.964Z,11.65
2023-05-06T23:53:16.341Z,10.95
2023-05-06T23:55:44.150Z,11.63
2023-05-06T23:58:11.679Z,11.60
